createdAt,value
2017-04-28T00:01:35.996Z,82.50
2017-04-28T00:04:04.349Z,82.60
2017-04-28T00:06:32.666Z,82.90
2017-04-28T00:09:01.009Z,82.80
2017-04-28T00:11:29.388Z,82.90
2017-04-28T00:13:57.710Z,82.40
2017-04-28T00:16:26.073Z,82.30
2017-04-28T00:18:54.403Z,82.10
2017-04-28T00:21:22.754Z,81.70
2017-04-28T00:23:51.853Z,82.10
2017-04-28T00:26:21.145Z,83.00
2017-04-28T00:28:49.465Z,81.80
2017-04-28T00:31:17.801Z,81.80
2017-04-28T00:33:46.513Z,82.20
2017-04-28T00:36:14.840Z,82.30
2017-04-28T00:38:43.177Z,82.00
2017-04-28T00:41:11.542Z,81.80
2017-04-28T00:43:40.021Z,81.80
2017-04-28T00:46:08.362Z,81.60
2017-04-28T00:48:36.688Z,82.00
2017-04-28T00:51:05.040Z,81.30
2017-04-28T00:53:34.206Z,81.50
2017-04-28T00:56:02.585Z,81.80
2017-04-28T00:58:30.945Z,81.00
2017-04-28T01:00:59.279Z,81.60
2017-04-28T01:03:27.726Z,81.70
2017-04-28T01:05:56.081Z,81.50
2017-04-28T01:08:24.434Z,81.20
2017-04-28T01:10:52.773Z,81.20
2017-04-28T01:13:21.938Z,80.90
2017-04-28T01:15:50.297Z,81.20
2017-04-28T01:18:18.612Z,80.80
2017-04-28T01:20:46.941Z,80.60
2017-04-28T01:23:15.340Z,80.50
2017-04-28T01:25:43.768Z,81.00
2017-04-28T01:28:12.114Z,79.70
2017-04-28T01:30:40.521Z,79.70
2017-04-28T01:33:08.869Z,80.00
2017-04-28T01:35:37.223Z,79.80
2017-04-28T01:38:05.549Z,79.60
2017-04-28T01:40:34.617Z,80.10
2017-04-28T01:43:02.973Z,80.20
2017-04-28T01:45:35.867Z,80.50
2017-04-28T01:48:04.536Z,80.50
2017-04-28T01:50:32.853Z,80.80
2017-04-28T01:53:01.911Z,80.10
2017-04-28T01:55:30.319Z,80.30
2017-04-28T01:57:59.431Z,79.70
2017-04-28T02:00:27.790Z,80.20
2017-04-28T02:02:56.955Z,80.00
2017-04-28T02:05:25.296Z,79.60
2017-04-28T02:07:53.645Z,80.30
2017-04-28T02:10:22.742Z,79.80
2017-04-28T02:12:51.898Z,79.70
2017-04-28T02:15:20.253Z,80.00
2017-04-28T02:17:48.567Z,80.20
2017-04-28T02:20:16.939Z,80.20
2017-04-28T02:22:45.357Z,79.90
2017-04-28T02:25:13.690Z,79.70
2017-04-28T02:27:42.035Z,79.80
2017-04-28T02:30:10.384Z,80.30
2017-04-28T02:32:40.009Z,80.50
2017-04-28T02:35:08.349Z,80.40
2017-04-28T02:37:37.441Z,79.80
2017-04-28T02:40:05.890Z,79.80
2017-04-28T02:42:34.240Z,80.60
2017-04-28T02:45:02.926Z,80.40
2017-04-28T02:47:31.265Z,80.10
2017-04-28T02:50:00.325Z,80.30
2017-04-28T02:52:28.669Z,80.40
2017-04-28T02:54:57.019Z,80.40
2017-04-28T02:57:26.094Z,80.70
2017-04-28T02:59:54.537Z,81.50
2017-04-28T03:02:22.909Z,80.70
2017-04-28T03:04:51.285Z,80.90
2017-04-28T03:07:19.648Z,81.10
2017-04-28T03:09:47.973Z,80.70
2017-04-28T03:12:16.339Z,80.70
2017-04-28T03:14:44.689Z,80.50
2017-04-28T03:17:13.103Z,81.10
2017-04-28T03:19:41.574Z,81.10
2017-04-28T03:22:09.922Z,81.40
2017-04-28T03:24:38.301Z,81.80
2017-04-28T03:27:06.629Z,81.70
2017-04-28T03:29:35.716Z,81.60
2017-04-28T03:32:04.061Z,82.40
2017-04-28T03:34:32.403Z,84.10
2017-04-28T03:37:00.766Z,84.30
2017-04-28T03:39:29.847Z,84.40
2017-04-28T03:41:58.203Z,84.00
2017-04-28T03:44:26.556Z,84.80
2017-04-28T03:46:54.883Z,84.90
2017-04-28T03:49:23.975Z,84.50
2017-04-28T03:51:53.057Z,84.50
2017-04-28T03:54:21.418Z,84.90
2017-04-28T03:56:49.744Z,85.20
2017-04-28T03:59:18.841Z,85.20
2017-04-28T04:01:47.205Z,85.60
2017-04-28T04:04:16.292Z,85.70
2017-04-28T04:06:44.621Z,85.90
2017-04-28T04:09:12.952Z,86.40
2017-04-28T04:11:42.186Z,86.40
2017-04-28T04:14:10.586Z,86.60
2017-04-28T04:16:38.917Z,86.50
2017-04-28T04:19:07.299Z,86.20
2017-04-28T04:21:35.633Z,86.20
2017-04-28T04:24:04.001Z,86.30
2017-04-28T04:26:32.348Z,86.30
2017-04-28T04:29:00.695Z,86.70
2017-04-28T04:31:29.062Z,86.10
2017-04-28T04:33:58.169Z,86.10
2017-04-28T04:36:26.809Z,86.00
2017-04-28T04:38:55.281Z,86.40
2017-04-28T04:41:23.640Z,86.40
2017-04-28T04:43:52.381Z,86.60
2017-04-28T04:46:21.462Z,86.10
2017-04-28T04:48:50.534Z,86.50
2017-04-28T04:51:18.877Z,87.00
2017-04-28T04:53:47.242Z,87.00
2017-04-28T04:56:16.022Z,86.90
2017-04-28T04:58:44.360Z,86.50
2017-04-28T05:01:12.731Z,86.90
2017-04-28T05:03:41.203Z,86.50
2017-04-28T05:06:09.540Z,86.30
2017-04-28T05:08:37.914Z,86.40
2017-04-28T05:11:06.275Z,86.40
2017-04-28T05:13:35.394Z,86.40
2017-04-28T05:16:04.081Z,86.10
2017-04-28T05:18:32.411Z,87.10
2017-04-28T05:21:00.757Z,86.50
2017-04-28T05:23:29.749Z,86.70
2017-04-28T05:25:58.120Z,87.00
2017-04-28T05:28:26.513Z,87.20
2017-04-28T05:30:54.853Z,87.40
2017-04-28T05:33:23.206Z,88.10
2017-04-28T05:35:52.333Z,88.20
2017-04-28T05:38:20.674Z,88.40
2017-04-28T05:40:49.791Z,88.60
2017-04-28T05:43:19.083Z,88.50
2017-04-28T05:45:47.439Z,89.50
2017-04-28T05:48:16.544Z,88.10
2017-04-28T05:50:45.645Z,87.50
2017-04-28T05:53:14.032Z,88.20
2017-04-28T05:55:42.396Z,86.30
2017-04-28T05:58:11.477Z,85.90
2017-04-28T06:00:40.595Z,86.00
2017-04-28T06:03:08.954Z,86.10
2017-04-28T06:05:38.116Z,86.40
2017-04-28T06:08:06.481Z,86.50
2017-04-28T06:10:35.228Z,87.00
2017-04-28T06:13:03.560Z,88.30
2017-04-28T06:15:31.885Z,89.20
2017-04-28T06:18:00.273Z,89.80
2017-04-28T06:20:28.609Z,89.10
2017-04-28T06:22:56.959Z,90.10
2017-04-28T06:25:25.330Z,90.30
2017-04-28T06:27:53.688Z,89.60
2017-04-28T06:30:22.025Z,90.20
2017-04-28T06:32:51.195Z,90.40
2017-04-28T06:35:19.553Z,90.20
2017-04-28T06:37:48.612Z,90.40
2017-04-28T06:40:16.987Z,90.10
2017-04-28T06:42:45.376Z,90.10
2017-04-28T06:45:14.132Z,89.30
2017-04-28T06:47:42.460Z,88.30
2017-04-28T06:50:10.844Z,87.60
2017-04-28T06:52:39.225Z,86.40
2017-04-28T06:55:07.613Z,86.30
2017-04-28T06:57:37.022Z,86.00
2017-04-28T07:00:05.414Z,85.80
2017-04-28T07:02:33.740Z,85.50
2017-04-28T07:05:02.114Z,85.30
2017-04-28T07:07:30.530Z,84.60
2017-04-28T07:09:58.891Z,84.80
2017-04-28T07:12:27.264Z,85.40
2017-04-28T07:14:55.633Z,86.60
2017-04-28T07:17:23.998Z,86.80
2017-04-28T07:19:52.401Z,86.80
2017-04-28T07:22:20.783Z,86.70
2017-04-28T07:24:49.181Z,86.70
2017-04-28T07:27:17.568Z,84.90
2017-04-28T07:29:46.890Z,84.30
2017-04-28T07:32:15.425Z,83.80
2017-04-28T07:34:43.756Z,83.80
2017-04-28T07:37:12.132Z,83.60
2017-04-28T07:39:40.538Z,83.10
2017-04-28T07:42:08.978Z,83.00
2017-04-28T07:44:38.102Z,82.80
2017-04-28T07:47:06.448Z,83.30
2017-04-28T07:49:34.781Z,84.60
2017-04-28T07:52:03.157Z,83.70
2017-04-28T07:54:31.921Z,82.60
2017-04-28T07:57:00.321Z,80.80
2017-04-28T07:59:28.741Z,80.50
2017-04-28T08:01:57.849Z,80.00
2017-04-28T08:04:26.229Z,79.00
2017-04-28T08:06:54.565Z,79.30
2017-04-28T08:09:22.973Z,80.30
2017-04-28T08:11:51.309Z,81.60
2017-04-28T08:14:19.680Z,80.90
2017-04-28T08:16:48.035Z,80.50
2017-04-28T08:19:16.545Z,80.10
2017-04-28T08:21:44.910Z,78.70
2017-04-28T08:24:13.280Z,79.20
2017-04-28T08:26:41.657Z,78.80
2017-04-28T08:29:10.014Z,77.90
2017-04-28T08:31:38.777Z,77.70
2017-04-28T08:34:07.870Z,78.30
2017-04-28T08:36:36.945Z,77.90
2017-04-28T08:39:05.299Z,78.00
2017-04-28T08:41:33.644Z,77.20
2017-04-28T08:44:01.990Z,76.00
2017-04-28T08:46:31.068Z,76.60
2017-04-28T08:48:59.437Z,76.90
2017-04-28T08:51:27.793Z,77.50
2017-04-28T08:53:56.117Z,75.60
2017-04-28T08:56:25.206Z,77.00
2017-04-28T08:58:54.437Z,73.30
2017-04-28T09:01:22.770Z,73.90
2017-04-28T09:03:51.869Z,74.20
2017-04-28T09:06:20.929Z,73.30
2017-04-28T09:08:49.319Z,70.70
2017-04-28T09:11:17.680Z,70.20
2017-04-28T09:13:46.211Z,68.90
2017-04-28T09:16:14.558Z,67.20
2017-04-28T09:18:42.905Z,67.40
2017-04-28T09:21:11.281Z,70.00
2017-04-28T09:23:39.629Z,67.20
2017-04-28T09:26:07.967Z,68.60
2017-04-28T09:28:36.321Z,68.20
2017-04-28T09:31:04.698Z,68.20
2017-04-28T09:33:33.045Z,68.70
2017-04-28T09:36:01.400Z,67.60
2017-04-28T09:38:29.733Z,66.60
2017-04-28T09:40:58.469Z,68.10
2017-04-28T09:43:26.810Z,69.60
2017-04-28T09:45:55.142Z,69.90
2017-04-28T09:48:23.541Z,68.90
2017-04-28T09:50:51.900Z,69.40
2017-04-28T09:53:20.413Z,69.50
2017-04-28T09:55:48.917Z,69.40
2017-04-28T09:58:17.990Z,74.70
2017-04-28T10:00:46.793Z,75.90
2017-04-28T10:03:16.301Z,76.80
2017-04-28T10:05:45.493Z,80.40
2017-04-28T10:08:14.589Z,82.20
2017-04-28T10:10:42.913Z,84.70
2017-04-28T10:13:11.392Z,87.30
2017-04-28T10:15:39.718Z,88.50
2017-04-28T10:18:08.160Z,88.70
2017-04-28T10:20:36.660Z,88.40
2017-04-28T10:23:04.993Z,88.30
2017-04-28T10:25:34.124Z,88.20
2017-04-28T10:28:03.022Z,89.00
2017-04-28T10:30:31.692Z,90.10
2017-04-28T10:33:00.557Z,86.70
2017-04-28T10:35:30.021Z,86.00
2017-04-28T10:37:59.214Z,81.70
2017-04-28T10:40:28.954Z,82.40
2017-04-28T10:42:57.294Z,83.00
2017-04-28T10:45:25.617Z,81.00
2017-04-28T10:47:54.100Z,82.70
2017-04-28T10:50:23.090Z,81.70
2017-04-28T10:52:51.762Z,80.70
2017-04-28T10:55:20.129Z,79.90
2017-04-28T10:57:48.702Z,76.70
2017-04-28T11:00:17.125Z,74.20
2017-04-28T11:02:46.455Z,73.70
2017-04-28T11:05:15.899Z,76.80
2017-04-28T11:07:44.390Z,73.70
2017-04-28T11:10:12.814Z,73.60
2017-04-28T11:12:41.285Z,76.10
2017-04-28T11:15:09.720Z,76.30
2017-04-28T11:17:41.084Z,78.30
2017-04-28T11:20:09.496Z,77.30
2017-04-28T11:22:38.708Z,80.70
2017-04-28T11:25:07.177Z,77.70
2017-04-28T11:27:35.575Z,79.20
2017-04-28T11:30:04.795Z,79.60
2017-04-28T11:32:33.326Z,76.70
2017-04-28T11:35:01.743Z,76.70
2017-04-28T11:37:30.306Z,76.30
2017-04-28T11:39:59.443Z,75.80
2017-04-28T11:42:27.813Z,76.10
2017-04-28T11:44:56.189Z,75.60
2017-04-28T11:47:24.661Z,75.60
2017-04-28T11:49:52.993Z,75.60
2017-04-28T11:52:21.317Z,75.20
2017-04-28T11:54:49.760Z,73.10
2017-04-28T11:57:18.099Z,71.70
2017-04-28T11:59:46.803Z,71.00
2017-04-28T12:02:15.641Z,71.60
2017-04-28T12:04:43.974Z,72.40
2017-04-28T12:07:12.316Z,70.10
2017-04-28T12:09:40.744Z,70.10
2017-04-28T12:12:09.147Z,69.70
2017-04-28T12:14:38.224Z,67.00
2017-04-28T12:17:06.578Z,67.80
2017-04-28T12:19:35.234Z,60.90
2017-04-28T12:22:03.580Z,60.70
2017-04-28T12:24:31.961Z,63.70
2017-04-28T12:27:00.405Z,59.90
2017-04-28T12:29:28.767Z,61.30
2017-04-28T12:31:57.492Z,62.30
2017-04-28T12:34:26.566Z,62.80
2017-04-28T12:36:54.983Z,64.00
2017-04-28T12:39:23.505Z,66.10
2017-04-28T12:41:51.859Z,66.20
2017-04-28T12:44:20.194Z,67.30
2017-04-28T12:46:48.575Z,71.40
2017-04-28T12:49:17.652Z,73.80
2017-04-28T12:51:46.025Z,76.50
2017-04-28T12:54:14.369Z,77.70
2017-04-28T12:56:42.742Z,80.60
2017-04-28T12:59:11.392Z,82.90
2017-04-28T13:01:40.493Z,85.50
2017-04-28T13:04:08.820Z,86.40
2017-04-28T13:06:37.192Z,87.70
2017-04-28T13:09:05.588Z,90.10
2017-04-28T13:11:33.956Z,90.50
2017-04-28T13:14:02.429Z,91.90
2017-04-28T13:16:30.789Z,93.30
2017-04-28T13:18:59.102Z,93.50
2017-04-28T13:21:27.431Z,92.60
2017-04-28T13:23:55.760Z,92.50
2017-04-28T13:26:24.096Z,92.40
2017-04-28T13:28:52.437Z,91.50
2017-04-28T13:31:20.805Z,91.80
2017-04-28T13:33:49.481Z,90.70
2017-04-28T13:36:18.666Z,90.40
2017-04-28T13:38:47.310Z,90.20
2017-04-28T13:41:15.657Z,89.00
2017-04-28T13:43:43.993Z,87.60
2017-04-28T13:46:12.363Z,86.90
2017-04-28T13:48:40.741Z,90.20
2017-04-28T13:51:10.159Z,87.90
2017-04-28T13:53:38.542Z,87.80
2017-04-28T13:56:06.998Z,86.70
2017-04-28T13:58:35.350Z,89.80
2017-04-28T14:01:03.684Z,89.30
2017-04-28T14:03:32.358Z,90.00
2017-04-28T14:06:00.686Z,88.30
2017-04-28T14:08:29.020Z,86.70
2017-04-28T14:10:58.128Z,83.50
2017-04-28T14:13:26.461Z,83.40
2017-04-28T14:15:54.795Z,81.80
2017-04-28T14:18:23.342Z,83.50
2017-04-28T14:20:51.718Z,79.20
2017-04-28T14:23:20.109Z,83.00
2017-04-28T14:25:49.220Z,77.90
2017-04-28T14:28:17.589Z,81.70
2017-04-28T14:30:46.662Z,84.90
2017-04-28T14:33:15.354Z,87.00
2017-04-28T14:35:44.461Z,85.20
2017-04-28T14:38:13.695Z,85.90
2017-04-28T14:40:42.079Z,86.50
2017-04-28T14:43:10.420Z,85.30
2017-04-28T14:45:39.515Z,85.90
2017-04-28T14:48:07.882Z,82.50
2017-04-28T14:50:36.978Z,81.00
2017-04-28T14:53:06.112Z,74.80
2017-04-28T14:55:34.574Z,76.30
2017-04-28T14:58:03.910Z,79.50
2017-04-28T15:00:32.311Z,78.50
2017-04-28T15:03:00.723Z,71.20
2017-04-28T15:05:29.094Z,68.40
2017-04-28T15:07:58.222Z,63.40
2017-04-28T15:10:27.028Z,62.00
2017-04-28T15:12:55.393Z,66.30
2017-04-28T15:15:35.421Z,67.00
2017-04-28T15:18:03.780Z,66.70
2017-04-28T15:20:32.955Z,65.80
2017-04-28T15:23:02.213Z,68.60
2017-04-28T15:25:30.627Z,69.80
2017-04-28T15:27:59.022Z,70.10
2017-04-28T15:30:28.174Z,70.40
2017-04-28T15:32:56.574Z,71.30
2017-04-28T15:35:24.983Z,70.40
2017-04-28T15:37:53.312Z,70.70
2017-04-28T15:40:23.588Z,70.70
2017-04-28T15:42:51.989Z,70.90
2017-04-28T15:45:20.491Z,72.40
2017-04-28T15:47:48.902Z,73.50
2017-04-28T15:50:18.072Z,74.10
2017-04-28T15:52:46.477Z,70.10
2017-04-28T15:55:15.570Z,68.60
2017-04-28T15:57:43.938Z,68.90
2017-04-28T16:00:12.341Z,68.80
2017-04-28T16:02:41.397Z,69.00
2017-04-28T16:05:09.877Z,66.70
2017-04-28T16:07:38.378Z,64.00
2017-04-28T16:10:07.530Z,63.20
2017-04-28T16:12:36.235Z,63.00
2017-04-28T16:15:04.814Z,64.00
2017-04-28T16:17:33.298Z,63.60
2017-04-28T16:20:01.817Z,63.70
2017-04-28T16:22:30.214Z,62.30
2017-04-28T16:25:00.472Z,59.90
2017-04-28T16:27:28.901Z,57.30
2017-04-28T16:29:57.287Z,56.60
2017-04-28T16:32:25.643Z,58.00
2017-04-28T16:34:54.725Z,58.60
2017-04-28T16:37:23.068Z,60.90
2017-04-28T16:39:51.461Z,60.70
2017-04-28T16:42:19.850Z,61.90
2017-04-28T16:44:48.218Z,62.10
2017-04-28T16:47:16.574Z,62.00
2017-04-28T16:49:44.979Z,62.50
2017-04-28T16:52:14.079Z,63.60
2017-04-28T16:54:42.644Z,63.30
2017-04-28T16:57:11.017Z,62.20
2017-04-28T16:59:39.439Z,62.90
2017-04-28T17:02:08.532Z,62.30
2017-04-28T17:04:37.673Z,62.90
2017-04-28T17:07:06.285Z,64.00
2017-04-28T17:09:34.645Z,64.20
2017-04-28T17:12:02.970Z,63.00
2017-04-28T17:14:32.093Z,58.80
2017-04-28T17:17:00.417Z,59.00
2017-04-28T17:19:28.810Z,56.90
2017-04-28T17:21:57.891Z,58.50
2017-04-28T17:24:26.230Z,59.50
2017-04-28T17:26:54.591Z,61.00
2017-04-28T17:29:22.963Z,63.10
2017-04-28T17:31:51.429Z,57.70
2017-04-28T17:34:20.830Z,56.40
2017-04-28T17:36:49.909Z,56.40
2017-04-28T17:39:19.094Z,52.10
2017-04-28T17:41:47.924Z,51.10
2017-04-28T17:44:16.257Z,51.40
2017-04-28T17:46:44.978Z,53.90
2017-04-28T17:49:13.309Z,55.00
2017-04-28T17:51:41.679Z,56.50
2017-04-28T17:54:10.421Z,58.30
2017-04-28T17:56:38.749Z,60.50
2017-04-28T17:59:07.084Z,63.40
2017-04-28T18:01:35.504Z,59.90
2017-04-28T18:04:03.979Z,61.00
2017-04-28T18:06:32.311Z,61.40
2017-04-28T18:09:00.669Z,63.40
2017-04-28T18:11:29.796Z,63.40
2017-04-28T18:13:58.133Z,64.10
2017-04-28T18:16:27.257Z,65.60
2017-04-28T18:18:55.631Z,65.70
2017-04-28T18:21:24.007Z,66.70
2017-04-28T18:23:52.326Z,65.80
2017-04-28T18:26:21.087Z,66.40
2017-04-28T18:28:49.419Z,65.70
2017-04-28T18:31:17.797Z,65.60
2017-04-28T18:33:46.497Z,65.80
2017-04-28T18:36:14.838Z,66.60
2017-04-28T18:38:43.550Z,67.50
2017-04-28T18:41:12.672Z,67.30
2017-04-28T18:43:41.038Z,67.00
2017-04-28T18:46:09.378Z,68.00
2017-04-28T18:48:37.789Z,67.20
2017-04-28T18:51:06.118Z,68.90
2017-04-28T18:53:34.517Z,68.60
2017-04-28T18:56:02.885Z,69.50
2017-04-28T18:58:31.243Z,70.10
2017-04-28T19:00:59.998Z,70.60
2017-04-28T19:03:28.371Z,69.70
2017-04-28T19:05:56.717Z,71.30
2017-04-28T19:08:25.436Z,71.10
2017-04-28T19:10:53.782Z,73.00
2017-04-28T19:13:22.137Z,73.20
2017-04-28T19:15:50.986Z,72.80
2017-04-28T19:18:19.319Z,73.90
2017-04-28T19:20:47.650Z,73.80
2017-04-28T19:23:16.501Z,73.60
2017-04-28T19:25:44.953Z,74.10
2017-04-28T19:28:13.285Z,74.20
2017-04-28T19:30:41.647Z,74.80
2017-04-28T19:33:10.030Z,75.20
2017-04-28T19:35:38.452Z,76.00
2017-04-28T19:38:06.839Z,75.30
2017-04-28T19:40:35.176Z,76.10
2017-04-28T19:43:03.542Z,77.10
2017-04-28T19:45:31.918Z,76.40
2017-04-28T19:48:00.421Z,78.40
2017-04-28T19:50:28.782Z,77.70
2017-04-28T19:52:57.268Z,78.30
2017-04-28T19:55:25.648Z,79.80
2017-04-28T19:57:54.018Z,80.00
2017-04-28T20:00:22.390Z,80.40
2017-04-28T20:02:50.797Z,81.80
2017-04-28T20:05:19.157Z,82.10
2017-04-28T20:07:47.576Z,82.70
2017-04-28T20:10:15.931Z,82.90
2017-04-28T20:12:44.286Z,83.50
2017-04-28T20:15:12.965Z,83.80
2017-04-28T20:17:41.337Z,85.00
2017-04-28T20:20:09.681Z,85.10
2017-04-28T20:22:39.516Z,86.00
2017-04-28T20:25:07.861Z,85.60
2017-04-28T20:27:36.217Z,85.50
2017-04-28T20:30:04.634Z,86.00
2017-04-28T20:32:33.014Z,86.70
2017-04-28T20:35:02.093Z,86.50
2017-04-28T20:37:30.477Z,86.30
2017-04-28T20:39:58.854Z,86.50
2017-04-28T20:42:27.193Z,86.70
2017-04-28T20:44:55.615Z,87.30
2017-04-28T20:47:23.974Z,87.20
2017-04-28T20:49:52.316Z,87.40
2017-04-28T20:52:20.694Z,87.20
2017-04-28T20:54:49.174Z,87.50
2017-04-28T20:57:17.505Z,87.40
2017-04-28T20:59:45.865Z,87.20
2017-04-28T21:02:14.218Z,87.70
2017-04-28T21:04:42.553Z,88.10
2017-04-28T21:07:11.668Z,88.00
2017-04-28T21:09:40.039Z,88.00
2017-04-28T21:12:08.839Z,88.30
2017-04-28T21:14:37.178Z,88.30
2017-04-28T21:17:06.247Z,88.30
2017-04-28T21:19:34.898Z,88.00
2017-04-28T21:22:03.388Z,88.30
2017-04-28T21:24:31.734Z,88.60
2017-04-28T21:27:00.095Z,88.80
2017-04-28T21:29:29.330Z,88.90
2017-04-28T21:31:57.685Z,88.60
2017-04-28T21:34:26.026Z,88.70
2017-04-28T21:36:54.359Z,88.90
2017-04-28T21:39:22.717Z,89.00
2017-04-28T21:41:51.045Z,88.90
2017-04-28T21:44:19.874Z,89.00
2017-04-28T21:46:48.313Z,89.60
2017-04-28T21:49:16.642Z,89.40
2017-04-28T21:51:44.995Z,89.00
2017-04-28T21:54:14.062Z,89.30
2017-04-28T21:56:42.778Z,89.10
2017-04-28T21:59:11.116Z,89.00
2017-04-28T22:01:39.478Z,88.90
2017-04-28T22:04:07.852Z,88.90
2017-04-28T22:06:36.177Z,89.30
2017-04-28T22:09:04.859Z,89.40
2017-04-28T22:11:34.027Z,89.60
2017-04-28T22:14:02.353Z,89.30
2017-04-28T22:16:36.357Z,89.30
2017-04-28T22:19:05.429Z,89.30
2017-04-28T22:21:33.806Z,89.60
2017-04-28T22:24:02.148Z,89.60
2017-04-28T22:26:30.501Z,89.50
2017-04-28T22:28:58.851Z,89.70
2017-04-28T22:31:27.950Z,90.10
2017-04-28T22:33:55.533Z,90.10
2017-04-28T22:36:23.896Z,90.30
2017-04-28T22:38:52.773Z,90.10
2017-04-28T22:41:21.840Z,90.20
2017-04-28T22:43:50.212Z,90.90
2017-04-28T22:46:18.932Z,90.40
2017-04-28T22:48:47.258Z,90.40
2017-04-28T22:51:25.301Z,90.40
2017-04-28T22:56:47.386Z,90.20
2017-04-28T22:59:15.730Z,90.10
2017-04-28T23:01:45.143Z,90.20
2017-04-28T23:04:13.470Z,90.10
2017-04-28T23:06:41.803Z,90.20
2017-04-28T23:09:10.362Z,90.00
2017-04-28T23:11:39.482Z,90.20
2017-04-28T23:14:07.813Z,90.30
2017-04-28T23:16:36.144Z,90.30
2017-04-28T23:19:04.505Z,90.20
2017-04-28T23:21:32.851Z,90.00
2017-04-28T23:24:01.224Z,90.10
2017-04-28T23:26:29.616Z,90.10
2017-04-28T23:28:57.946Z,90.00
2017-04-28T23:31:26.304Z,90.10
2017-04-28T23:33:54.633Z,90.30
2017-04-28T23:36:22.985Z,90.20
2017-04-28T23:38:51.408Z,90.20
2017-04-28T23:41:20.473Z,90.30
2017-04-28T23:43:49.198Z,90.40
2017-04-28T23:46:18.284Z,90.40
2017-04-28T23:48:47.353Z,90.10
2017-04-28T23:51:16.065Z,90.10
2017-04-28T23:53:45.196Z,90.20
2017-04-28T23:56:13.508Z,90.20
2017-04-28T23:58:41.876Z,90.30
